RUNWAY INFORMATION
Runway Length Width Elevation Displaced
Threshold
Heading | Runway Length Width Elevation Displaced
Threshold
Heading
07 7897 ft 150 ft 6 ft 0 ft 76 | 25 7897 ft 150 ft 6 ft 0 ft 256

 AIRPORT FREQUENCIES
Type CTAF Name CTAF Frequency 123.6 MHZ
Type RDO Name MAJURO RDO Frequency 123.6 MHZ

 AIRPORT NEAR NAVIGATION AIDS
Type NDB-DME Name Majuro Frequency 316 KHZ

 METAR AND TAF INFORMATION
METAR FOR PKMJ
ADDS - METARS form results

(0605 UTC 23 April 2021)
Data provider http://aviationweather.gov/metar/data/
 
Forecast for: PKMJ (MAJURO WSO AIRPO, MH, US)
Text: PKMJ 230538Z 2306/2406 08011KT P6SM FEW018 SCT050
Forecast period: 0600 to 1200 UTC 23 April 2021
Forecast type: FROM: standard forecast or significant change
Winds: from the E (80 degrees) at 13 MPH (11 knots; 5.7 m/s)
Visibility: 6 or more miles (10+ km)
Ceiling: at least 12,000 feet AGL
Clouds: few clouds at 1800 feet AGL
scattered clouds at 5000 feet AGL
Weather: no significant weather forecast for this period
Text: FM231200 08011KT P6SM VCSH SCT018 SCT050
Forecast period: 1200 UTC 23 April 2021 to 0600 UTC 24 April 2021
Forecast type: FROM: standard forecast or significant change
Winds: from the E (80 degrees) at 13 MPH (11 knots; 5.7 m/s)
Visibility: 6 or more miles (10+ km)
Ceiling: at least 12,000 feet AGL
Clouds: scattered clouds at 1800 feet AGL
scattered clouds at 5000 feet AGL
Weather: VCSH  (showers in vicinity)



© 2013 - 2021, FlightSimLog.org - Powered by Virtual Airlines Manager